createdAt,value
2018-03-31T00:00:40.188Z,0
2018-03-31T00:01:20.577Z,0
2018-03-31T00:02:01.026Z,0
2018-03-31T00:02:41.369Z,0
2018-03-31T00:03:21.789Z,0
2018-03-31T00:04:02.230Z,0
2018-03-31T00:04:42.536Z,0
2018-03-31T00:05:22.927Z,0
2018-03-31T00:06:03.374Z,0
2018-03-31T00:06:43.886Z,0
2018-03-31T00:07:24.169Z,0
2018-03-31T00:08:04.634Z,0
2018-03-31T00:08:44.971Z,0
2018-03-31T00:09:25.431Z,0
2018-03-31T00:10:05.897Z,0
2018-03-31T00:10:46.276Z,0
2018-03-31T00:11:26.666Z,0
2018-03-31T00:12:09.609Z,0
2018-03-31T00:12:50.093Z,0
2018-03-31T00:13:30.400Z,0
2018-03-31T00:14:10.834Z,0
2018-03-31T00:14:51.223Z,0
2018-03-31T00:15:31.638Z,0
2018-03-31T00:16:12.090Z,0
2018-03-31T00:16:52.462Z,0
2018-03-31T00:17:32.869Z,0
2018-03-31T00:18:13.275Z,0
2018-03-31T00:18:53.683Z,0
2018-03-31T00:19:34.130Z,0
2018-03-31T00:20:14.620Z,0
2018-03-31T00:20:54.982Z,0
2018-03-31T00:21:35.351Z,0
2018-03-31T00:22:15.778Z,0
2018-03-31T00:22:56.212Z,0
2018-03-31T00:23:36.680Z,0
2018-03-31T00:24:17.067Z,0
2018-03-31T00:24:57.431Z,0
2018-03-31T00:25:37.848Z,0
2018-03-31T00:26:18.266Z,0
2018-03-31T00:26:58.688Z,0
2018-03-31T00:27:39.054Z,0
2018-03-31T00:28:19.467Z,0
2018-03-31T00:28:59.948Z,0
2018-03-31T00:29:40.326Z,0
2018-03-31T00:30:20.730Z,0
2018-03-31T00:31:01.193Z,0
2018-03-31T00:31:41.587Z,0
2018-03-31T00:32:22.029Z,0
2018-03-31T00:33:02.442Z,0
2018-03-31T00:33:42.828Z,0
2018-03-31T00:34:23.231Z,0
2018-03-31T00:35:03.678Z,0
2018-03-31T00:35:44.088Z,0
2018-03-31T00:36:24.486Z,0
2018-03-31T00:37:04.898Z,0
2018-03-31T00:37:45.325Z,0
2018-03-31T00:38:25.767Z,0
2018-03-31T00:39:06.133Z,0
2018-03-31T00:39:46.625Z,0
2018-03-31T00:40:26.977Z,0
2018-03-31T00:41:07.421Z,0
2018-03-31T00:41:47.876Z,0
2018-03-31T00:42:28.263Z,0
2018-03-31T00:43:08.682Z,0
2018-03-31T00:43:49.113Z,0
2018-03-31T00:44:29.581Z,0
2018-03-31T00:45:09.883Z,0
2018-03-31T00:45:50.300Z,0
2018-03-31T00:46:30.730Z,0
2018-03-31T00:47:11.135Z,0
2018-03-31T00:47:52.158Z,0
2018-03-31T00:48:32.000Z,0
2018-03-31T00:49:12.443Z,0
2018-03-31T00:49:52.769Z,0
2018-03-31T00:50:33.242Z,0
2018-03-31T00:51:13.690Z,0
2018-03-31T00:51:54.212Z,0
2018-03-31T00:52:34.568Z,0
2018-03-31T00:53:15.031Z,0
2018-03-31T00:53:55.413Z,0
2018-03-31T00:54:35.898Z,0
2018-03-31T00:55:16.305Z,0
2018-03-31T00:55:56.615Z,0
2018-03-31T00:56:37.186Z,0
2018-03-31T00:57:17.851Z,0
2018-03-31T00:57:58.367Z,0
2018-03-31T00:58:38.759Z,0
2018-03-31T00:59:19.173Z,0
2018-03-31T00:59:59.551Z,0
2018-03-31T01:00:40.194Z,0
2018-03-31T01:01:20.569Z,0
2018-03-31T01:02:01.056Z,0
2018-03-31T01:02:41.552Z,0
2018-03-31T01:03:21.974Z,0
2018-03-31T01:04:02.330Z,0
2018-03-31T01:04:42.766Z,0
2018-03-31T01:05:23.285Z,0
2018-03-31T01:06:03.631Z,0
2018-03-31T01:06:44.061Z,0
2018-03-31T01:07:24.457Z,0
2018-03-31T01:08:04.903Z,0
2018-03-31T01:08:45.316Z,0
2018-03-31T01:09:25.759Z,0
2018-03-31T01:10:06.123Z,0
2018-03-31T01:10:46.540Z,0
2018-03-31T01:11:26.943Z,0
2018-03-31T01:12:07.402Z,0
2018-03-31T01:12:47.802Z,0
2018-03-31T01:13:28.177Z,0
2018-03-31T01:14:08.623Z,0
2018-03-31T01:14:49.035Z,0
2018-03-31T01:15:29.418Z,0
2018-03-31T01:16:09.733Z,0
2018-03-31T01:16:50.131Z,0
2018-03-31T01:17:30.599Z,0
2018-03-31T01:18:10.976Z,0
2018-03-31T01:18:51.419Z,0
2018-03-31T01:19:31.770Z,0
2018-03-31T01:20:12.136Z,0
2018-03-31T01:20:52.510Z,0
2018-03-31T01:21:32.915Z,0
2018-03-31T01:22:13.289Z,0
2018-03-31T01:22:53.698Z,0
2018-03-31T01:23:34.126Z,0
2018-03-31T01:24:14.514Z,0
2018-03-31T01:24:54.952Z,0
2018-03-31T01:25:35.359Z,0
2018-03-31T01:26:15.735Z,0
2018-03-31T01:26:56.137Z,0
2018-03-31T01:27:36.609Z,0
2018-03-31T01:28:16.983Z,0
2018-03-31T01:28:57.430Z,0
2018-03-31T01:29:37.861Z,0
2018-03-31T01:30:18.225Z,0
2018-03-31T01:30:58.686Z,0
2018-03-31T01:31:39.039Z,0
2018-03-31T01:32:19.501Z,0
2018-03-31T01:32:59.867Z,0
2018-03-31T01:33:40.215Z,0
2018-03-31T01:34:20.656Z,0
2018-03-31T01:35:01.033Z,0
2018-03-31T01:35:41.467Z,0
2018-03-31T01:36:21.875Z,0
2018-03-31T01:37:02.309Z,0
2018-03-31T01:37:42.657Z,0
2018-03-31T01:38:23.172Z,0
2018-03-31T01:39:03.543Z,0
2018-03-31T01:39:43.904Z,0
2018-03-31T01:40:24.454Z,0
2018-03-31T01:41:04.829Z,0
2018-03-31T01:41:45.221Z,0
2018-03-31T01:42:25.596Z,0
2018-03-31T01:43:05.972Z,0
2018-03-31T01:43:46.379Z,0
2018-03-31T01:44:26.951Z,0
2018-03-31T01:45:07.411Z,0
2018-03-31T01:45:47.838Z,0
2018-03-31T01:46:28.141Z,0
2018-03-31T01:47:08.687Z,0
2018-03-31T01:47:49.122Z,0
2018-03-31T01:48:29.532Z,0
2018-03-31T01:49:09.974Z,0
2018-03-31T01:49:50.418Z,0
2018-03-31T01:50:30.751Z,0
2018-03-31T01:51:11.230Z,0
2018-03-31T01:51:51.729Z,0
2018-03-31T01:52:32.145Z,0
2018-03-31T01:53:12.538Z,0
2018-03-31T01:53:53.048Z,0
2018-03-31T01:54:33.569Z,0
2018-03-31T01:55:13.983Z,0
2018-03-31T01:55:54.575Z,0
2018-03-31T01:56:34.950Z,0
2018-03-31T01:57:15.332Z,0
2018-03-31T01:57:55.698Z,0
2018-03-31T01:58:36.145Z,0
2018-03-31T01:59:16.527Z,0
2018-03-31T01:59:56.924Z,0
2018-03-31T02:00:37.308Z,0
2018-03-31T02:01:17.772Z,0
2018-03-31T02:01:58.210Z,0
2018-03-31T02:02:38.606Z,0
2018-03-31T02:03:19.020Z,0
2018-03-31T02:03:59.448Z,0
2018-03-31T02:04:39.856Z,0
2018-03-31T02:05:20.335Z,0
2018-03-31T02:06:00.705Z,0
2018-03-31T02:06:41.173Z,0
2018-03-31T02:07:21.512Z,0
2018-03-31T02:08:01.953Z,0
2018-03-31T02:08:42.401Z,0
2018-03-31T02:09:22.840Z,0
2018-03-31T02:10:03.194Z,0
2018-03-31T02:10:43.653Z,0
2018-03-31T02:11:24.107Z,0
2018-03-31T02:12:04.481Z,0
2018-03-31T02:12:44.818Z,0
2018-03-31T02:13:25.246Z,0
2018-03-31T02:14:05.983Z,0
2018-03-31T02:14:49.252Z,0
2018-03-31T02:15:29.807Z,0
2018-03-31T02:16:12.599Z,0
2018-03-31T02:16:56.627Z,0
2018-03-31T02:17:39.793Z,0
2018-03-31T02:18:23.541Z,0
2018-03-31T02:19:03.781Z,0
2018-03-31T02:19:44.152Z,0
2018-03-31T02:20:24.574Z,0
2018-03-31T02:21:04.928Z,0
2018-03-31T02:21:45.430Z,0
2018-03-31T02:22:25.866Z,0
2018-03-31T02:23:06.229Z,0
2018-03-31T02:23:46.749Z,0
2018-03-31T02:24:27.060Z,0
2018-03-31T02:25:07.557Z,0
2018-03-31T02:25:47.871Z,0
2018-03-31T02:26:28.213Z,0
2018-03-31T02:27:08.698Z,0
2018-03-31T02:27:49.029Z,0
2018-03-31T02:28:29.439Z,0
2018-03-31T02:29:09.838Z,0
2018-03-31T02:29:50.260Z,0
2018-03-31T02:30:30.635Z,0
2018-03-31T02:31:11.084Z,0
2018-03-31T02:31:51.463Z,0
2018-03-31T02:32:31.841Z,0
2018-03-31T02:33:12.340Z,0
2018-03-31T02:33:52.723Z,0
2018-03-31T02:34:33.117Z,0
2018-03-31T02:35:13.549Z,0
2018-03-31T02:35:53.925Z,0
2018-03-31T02:36:34.371Z,0
2018-03-31T02:37:14.730Z,0
2018-03-31T02:37:55.139Z,0
2018-03-31T02:38:35.593Z,0
2018-03-31T02:39:15.946Z,0
2018-03-31T02:39:56.404Z,0
2018-03-31T02:40:36.772Z,0
2018-03-31T02:41:17.184Z,0
2018-03-31T02:41:57.602Z,0
2018-03-31T02:42:38.012Z,0
2018-03-31T02:43:18.424Z,0
2018-03-31T02:43:58.922Z,0
2018-03-31T02:44:39.359Z,0
2018-03-31T02:45:19.833Z,0
2018-03-31T02:46:00.162Z,0
2018-03-31T02:46:40.641Z,0
2018-03-31T02:47:21.052Z,0
2018-03-31T02:48:01.532Z,0
2018-03-31T02:48:41.815Z,0
2018-03-31T02:49:23.152Z,0
2018-03-31T02:50:03.572Z,0
2018-03-31T02:50:43.970Z,0
2018-03-31T02:51:24.383Z,0
2018-03-31T02:52:04.768Z,0
2018-03-31T02:52:45.156Z,0
2018-03-31T02:53:25.537Z,0
2018-03-31T02:54:05.979Z,0
2018-03-31T02:54:46.351Z,0
2018-03-31T02:55:26.778Z,0
2018-03-31T02:56:08.928Z,0
2018-03-31T02:56:49.317Z,0
2018-03-31T02:57:29.743Z,0
2018-03-31T02:58:10.145Z,0
2018-03-31T02:58:50.564Z,0
2018-03-31T02:59:30.921Z,0
2018-03-31T03:00:11.261Z,0
2018-03-31T03:00:51.657Z,0
2018-03-31T03:01:32.120Z,0
2018-03-31T03:02:12.459Z,0
2018-03-31T03:02:52.942Z,0
2018-03-31T03:03:33.346Z,0
2018-03-31T03:04:13.813Z,0
2018-03-31T03:04:54.210Z,0
2018-03-31T03:05:34.535Z,0
2018-03-31T03:06:15.008Z,0
2018-03-31T03:06:55.410Z,0
2018-03-31T03:07:35.824Z,0
2018-03-31T03:08:16.550Z,0
2018-03-31T03:08:56.956Z,0
2018-03-31T03:09:37.299Z,0
2018-03-31T03:10:17.723Z,0
2018-03-31T03:10:58.144Z,0
2018-03-31T03:11:38.510Z,0
2018-03-31T03:12:18.987Z,0
2018-03-31T03:12:59.447Z,0
2018-03-31T03:13:39.831Z,0
2018-03-31T03:14:20.168Z,0
2018-03-31T03:15:00.570Z,0
2018-03-31T03:15:40.930Z,0
2018-03-31T03:16:21.364Z,0
2018-03-31T03:17:01.764Z,0
2018-03-31T03:17:42.314Z,0
2018-03-31T03:18:25.794Z,0
2018-03-31T03:19:06.163Z,0
2018-03-31T03:19:46.619Z,0
2018-03-31T03:20:27.029Z,0
2018-03-31T03:21:07.535Z,0
2018-03-31T03:21:48.722Z,0
2018-03-31T03:22:28.704Z,0
2018-03-31T03:23:11.569Z,0
2018-03-31T03:23:51.772Z,0
2018-03-31T03:24:32.182Z,0
2018-03-31T03:25:12.582Z,0
2018-03-31T03:25:52.995Z,0
2018-03-31T03:26:33.349Z,0
2018-03-31T03:27:14.170Z,0
2018-03-31T03:27:54.654Z,0
2018-03-31T03:28:35.479Z,0
2018-03-31T03:29:15.546Z,0
2018-03-31T03:29:56.035Z,0
2018-03-31T03:30:36.436Z,0
2018-03-31T03:31:16.798Z,0
2018-03-31T03:31:57.649Z,0
2018-03-31T03:32:41.821Z,0
2018-03-31T03:33:26.262Z,0
2018-03-31T03:34:06.958Z,0
2018-03-31T03:34:47.377Z,0
2018-03-31T03:35:27.750Z,0
2018-03-31T03:36:08.188Z,0
2018-03-31T03:36:48.648Z,0
2018-03-31T03:37:29.128Z,0
2018-03-31T03:38:09.555Z,0
2018-03-31T03:38:49.948Z,0
2018-03-31T03:39:30.456Z,0
2018-03-31T03:40:10.898Z,0
2018-03-31T03:40:51.316Z,0
2018-03-31T03:41:31.711Z,0
2018-03-31T03:42:12.189Z,0
2018-03-31T03:42:52.540Z,0
2018-03-31T03:43:32.966Z,0
2018-03-31T03:44:13.390Z,0
2018-03-31T03:44:53.817Z,0
2018-03-31T03:45:34.877Z,0
2018-03-31T03:46:14.851Z,0
2018-03-31T03:46:55.381Z,0
2018-03-31T03:47:35.808Z,0
2018-03-31T03:48:16.269Z,0
2018-03-31T03:48:56.683Z,0
2018-03-31T03:49:37.112Z,0
2018-03-31T03:50:17.540Z,0
2018-03-31T03:50:57.886Z,0
2018-03-31T03:51:38.274Z,0
2018-03-31T03:52:18.738Z,0
2018-03-31T03:52:59.173Z,0
2018-03-31T03:53:39.856Z,0
2018-03-31T03:54:19.933Z,0
2018-03-31T03:55:00.536Z,0
2018-03-31T03:55:40.886Z,0
2018-03-31T03:56:21.363Z,0
2018-03-31T03:57:01.905Z,0
2018-03-31T03:57:42.217Z,0
2018-03-31T03:58:22.634Z,0
2018-03-31T03:59:03.079Z,0
2018-03-31T03:59:43.513Z,0
2018-03-31T04:00:23.887Z,0
2018-03-31T04:01:04.298Z,0
2018-03-31T04:01:44.733Z,0
2018-03-31T04:02:25.192Z,0
2018-03-31T04:03:05.614Z,0
2018-03-31T04:03:46.073Z,0
2018-03-31T04:44:08.177Z,0
2018-03-31T04:44:54.532Z,0
2018-03-31T04:45:43.461Z,0
2018-03-31T04:46:29.638Z,0
2018-03-31T04:51:10.109Z,0
2018-03-31T04:51:50.295Z,0
2018-03-31T04:52:30.889Z,0
2018-03-31T04:53:11.058Z,0
2018-03-31T04:53:51.584Z,0
2018-03-31T04:54:32.246Z,0
2018-03-31T04:55:12.695Z,0
2018-03-31T04:55:53.014Z,0
2018-03-31T04:56:33.542Z,0
2018-03-31T04:57:13.906Z,0
2018-03-31T04:57:54.274Z,0
2018-03-31T04:58:35.108Z,0
2018-03-31T04:59:15.144Z,0
2018-03-31T04:59:55.593Z,0
2018-03-31T05:00:35.944Z,0
2018-03-31T05:01:16.451Z,0
2018-03-31T05:01:56.795Z,0
2018-03-31T05:02:37.201Z,0
2018-03-31T05:03:17.670Z,0
2018-03-31T05:03:58.039Z,0
2018-03-31T05:04:38.575Z,0
2018-03-31T05:05:18.968Z,0
2018-03-31T05:05:59.382Z,0
2018-03-31T05:06:39.785Z,0
2018-03-31T05:07:20.220Z,0
2018-03-31T05:08:00.609Z,0
2018-03-31T05:08:41.018Z,0
2018-03-31T05:09:21.400Z,0
2018-03-31T05:10:01.807Z,0
2018-03-31T05:10:42.188Z,0
2018-03-31T05:11:22.541Z,0
2018-03-31T05:12:02.925Z,0
2018-03-31T05:12:43.358Z,0
2018-03-31T05:13:23.732Z,0
2018-03-31T05:14:04.188Z,0
2018-03-31T05:14:44.563Z,0
2018-03-31T05:15:24.965Z,0
2018-03-31T05:16:05.370Z,0
2018-03-31T05:16:45.802Z,0
2018-03-31T05:17:26.224Z,0
2018-03-31T05:18:06.576Z,0
2018-03-31T05:18:46.980Z,0
2018-03-31T05:19:27.414Z,0
2018-03-31T05:20:07.847Z,0
2018-03-31T05:20:48.262Z,0
2018-03-31T05:21:28.647Z,5
2018-03-31T05:22:09.101Z,5
2018-03-31T05:22:49.541Z,5
2018-03-31T05:23:29.869Z,5
2018-03-31T05:24:10.324Z,5
2018-03-31T05:24:50.764Z,5
2018-03-31T05:25:31.262Z,5
2018-03-31T05:26:11.665Z,5
2018-03-31T05:26:52.005Z,5
2018-03-31T05:27:32.471Z,5
2018-03-31T05:28:12.885Z,5
2018-03-31T05:28:53.250Z,5
2018-03-31T05:29:33.664Z,5
2018-03-31T05:30:14.068Z,10
2018-03-31T05:30:54.499Z,10
2018-03-31T05:31:34.876Z,10
2018-03-31T05:32:15.291Z,10
2018-03-31T05:32:55.735Z,10
2018-03-31T05:33:36.119Z,15
2018-03-31T05:34:16.499Z,15
2018-03-31T05:34:56.901Z,15
2018-03-31T05:35:37.299Z,15
2018-03-31T05:36:17.699Z,20
2018-03-31T05:36:58.088Z,15
2018-03-31T05:37:38.486Z,20
2018-03-31T05:38:18.907Z,20
2018-03-31T05:38:59.357Z,25
2018-03-31T05:39:39.742Z,25
2018-03-31T05:40:20.106Z,20
2018-03-31T05:41:02.133Z,20
2018-03-31T05:41:42.510Z,20
2018-03-31T05:42:22.920Z,20
2018-03-31T05:43:03.226Z,25
2018-03-31T05:43:43.717Z,30
2018-03-31T05:44:24.111Z,40
2018-03-31T05:45:04.550Z,45
2018-03-31T05:45:44.982Z,40
2018-03-31T05:46:25.381Z,40
2018-03-31T05:47:05.794Z,40
2018-03-31T05:47:46.205Z,35
2018-03-31T05:48:26.685Z,35
2018-03-31T05:49:07.030Z,35
2018-03-31T05:49:47.428Z,35
2018-03-31T05:50:27.940Z,35
2018-03-31T05:51:08.269Z,30
2018-03-31T05:51:48.684Z,35
2018-03-31T05:52:29.041Z,35
2018-03-31T05:53:09.489Z,35
2018-03-31T05:53:49.866Z,35
2018-03-31T05:54:30.318Z,35
2018-03-31T05:55:10.664Z,40
2018-03-31T05:55:51.084Z,40
2018-03-31T05:56:31.436Z,50
2018-03-31T05:57:11.839Z,50
2018-03-31T05:57:52.255Z,70
2018-03-31T05:58:32.712Z,80
2018-03-31T05:59:13.045Z,85
2018-03-31T05:59:53.389Z,95
2018-03-31T06:00:33.838Z,85
2018-03-31T06:01:14.178Z,85
2018-03-31T06:01:54.953Z,90
2018-03-31T06:02:35.395Z,100
2018-03-31T06:03:15.772Z,95
2018-03-31T06:03:56.269Z,110
2018-03-31T06:04:36.704Z,105
2018-03-31T06:05:17.116Z,90
2018-03-31T06:05:58.055Z,90
2018-03-31T06:06:38.367Z,100
2018-03-31T06:07:18.747Z,120
2018-03-31T06:07:59.136Z,120
2018-03-31T06:08:39.554Z,125
2018-03-31T06:09:19.984Z,125
2018-03-31T06:10:00.329Z,120
2018-03-31T06:10:40.696Z,110
2018-03-31T06:11:21.173Z,110
2018-03-31T06:12:01.738Z,120
2018-03-31T06:12:42.021Z,135
2018-03-31T06:13:22.438Z,130
2018-03-31T06:14:02.834Z,120
2018-03-31T06:14:43.265Z,125
2018-03-31T06:15:23.681Z,145
2018-03-31T06:16:04.062Z,155
2018-03-31T06:16:44.468Z,155
2018-03-31T06:17:24.953Z,120
2018-03-31T06:18:05.375Z,140
2018-03-31T06:18:45.727Z,150
2018-03-31T06:19:26.072Z,150
2018-03-31T06:20:06.441Z,150
2018-03-31T06:20:47.017Z,165
2018-03-31T06:21:27.425Z,165
2018-03-31T06:22:08.324Z,170
2018-03-31T06:22:48.465Z,130
2018-03-31T06:23:28.918Z,125
2018-03-31T06:24:09.359Z,145
2018-03-31T06:24:49.760Z,160
2018-03-31T06:25:30.170Z,190
2018-03-31T06:26:10.606Z,210
2018-03-31T06:26:51.010Z,230
2018-03-31T06:27:31.424Z,235
2018-03-31T06:28:11.847Z,260
2018-03-31T06:28:52.193Z,240
2018-03-31T06:29:32.605Z,240
2018-03-31T06:30:12.995Z,225
2018-03-31T06:30:53.422Z,235
2018-03-31T06:31:33.858Z,225
2018-03-31T06:32:14.299Z,230
2018-03-31T06:32:54.801Z,265
2018-03-31T06:33:35.514Z,310
2018-03-31T06:34:15.962Z,320
2018-03-31T06:34:57.154Z,325
2018-03-31T06:35:37.606Z,325
2018-03-31T06:36:21.177Z,330
2018-03-31T06:36:59.299Z,355
2018-03-31T06:37:39.755Z,380
2018-03-31T06:38:20.144Z,395
2018-03-31T06:39:00.574Z,400
2018-03-31T06:39:41.082Z,405
2018-03-31T06:40:23.831Z,390
2018-03-31T06:41:04.089Z,395
2018-03-31T06:41:44.987Z,415
2018-03-31T06:42:25.219Z,430
2018-03-31T06:43:05.599Z,410
2018-03-31T06:43:46.032Z,395
2018-03-31T06:44:26.399Z,380
2018-03-31T06:45:06.796Z,365
2018-03-31T06:45:47.509Z,375
2018-03-31T06:46:27.749Z,385
2018-03-31T06:47:08.145Z,355
2018-03-31T06:47:49.649Z,330
2018-03-31T06:48:30.062Z,335
2018-03-31T06:49:10.607Z,350
2018-03-31T06:49:51.310Z,360
2018-03-31T06:50:32.056Z,395
2018-03-31T06:51:12.850Z,405
2018-03-31T06:51:52.920Z,385
2018-03-31T06:52:33.340Z,400
2018-03-31T06:53:13.735Z,420
2018-03-31T06:53:54.107Z,440
2018-03-31T06:54:34.540Z,440
2018-03-31T06:55:14.972Z,435
2018-03-31T06:55:55.655Z,410
2018-03-31T06:56:35.771Z,380
2018-03-31T06:57:17.070Z,345
2018-03-31T06:57:57.444Z,270
2018-03-31T06:58:38.155Z,205
2018-03-31T06:59:18.566Z,175
2018-03-31T06:59:59.582Z,180
2018-03-31T07:00:39.988Z,180
2018-03-31T07:01:20.440Z,180
2018-03-31T07:02:00.817Z,185
2018-03-31T07:02:42.530Z,185
2018-03-31T07:03:22.698Z,185
2018-03-31T07:04:03.121Z,195
2018-03-31T07:04:43.526Z,195
2018-03-31T07:05:23.963Z,180
2018-03-31T07:06:04.379Z,175
2018-03-31T07:06:44.792Z,175
2018-03-31T07:07:25.221Z,180
2018-03-31T07:08:05.610Z,185
2018-03-31T07:08:46.059Z,190
2018-03-31T07:09:26.476Z,190
2018-03-31T07:10:06.887Z,180
2018-03-31T07:10:47.261Z,175
2018-03-31T07:11:27.886Z,165
2018-03-31T07:12:08.576Z,160
2018-03-31T07:12:49.073Z,145
2018-03-31T07:13:31.319Z,140
2018-03-31T07:14:13.202Z,135
2018-03-31T07:14:54.203Z,135
2018-03-31T07:15:34.308Z,135
2018-03-31T07:16:15.883Z,125
2018-03-31T07:16:56.442Z,115
2018-03-31T07:17:38.898Z,110
2018-03-31T07:18:18.978Z,115
2018-03-31T07:18:59.399Z,110
2018-03-31T07:19:39.847Z,125
2018-03-31T07:20:20.258Z,130
2018-03-31T07:21:00.644Z,130
2018-03-31T07:21:41.039Z,145
2018-03-31T07:22:21.516Z,150
2018-03-31T07:23:01.912Z,140
2018-03-31T07:23:42.381Z,130
2018-03-31T07:24:22.749Z,135
2018-03-31T07:25:04.149Z,135
2018-03-31T07:25:44.512Z,130
2018-03-31T07:26:25.590Z,125
2018-03-31T07:27:05.859Z,135
2018-03-31T07:27:46.848Z,140
2018-03-31T07:28:27.240Z,140
2018-03-31T07:29:07.621Z,145
2018-03-31T07:29:48.396Z,155
2018-03-31T07:30:28.758Z,155
2018-03-31T07:31:09.131Z,150
2018-03-31T07:31:50.537Z,140
2018-03-31T07:32:30.806Z,130
2018-03-31T07:33:11.454Z,145
2018-03-31T07:33:51.874Z,135
2018-03-31T07:34:32.616Z,135
2018-03-31T07:35:13.300Z,135
2018-03-31T07:35:54.391Z,130
2018-03-31T07:36:34.844Z,125
2018-03-31T07:37:15.367Z,125
2018-03-31T07:37:55.993Z,135
2018-03-31T07:38:36.202Z,135
2018-03-31T07:46:20.036Z,125
2018-03-31T07:47:09.500Z,120
2018-03-31T07:47:49.451Z,130
2018-03-31T07:48:32.273Z,130
2018-03-31T07:49:12.516Z,130
2018-03-31T07:49:54.135Z,130
2018-03-31T07:50:34.908Z,125
2018-03-31T07:51:15.289Z,120
2018-03-31T07:54:01.804Z,120
2018-03-31T07:57:08.493Z,115
2018-03-31T07:57:58.533Z,115
2018-03-31T07:58:49.494Z,115
2018-03-31T07:59:44.764Z,115
2018-03-31T08:00:26.967Z,115
2018-03-31T08:01:07.771Z,115
2018-03-31T08:15:03.483Z,110
2018-03-31T08:15:49.921Z,110
2018-03-31T08:16:39.132Z,110
2018-03-31T08:20:41.428Z,105
2018-03-31T08:21:31.705Z,105
2018-03-31T08:22:14.912Z,105
2018-03-31T08:22:55.290Z,100
2018-03-31T08:23:36.054Z,100
2018-03-31T08:24:17.038Z,95
2018-03-31T08:24:57.488Z,95
2018-03-31T08:25:37.849Z,95
2018-03-31T08:26:19.601Z,95
2018-03-31T08:26:58.904Z,95
2018-03-31T08:27:39.265Z,95
2018-03-31T08:28:19.738Z,95
2018-03-31T08:29:02.743Z,95
2018-03-31T08:29:44.438Z,95
2018-03-31T08:40:51.424Z,95
2018-03-31T08:50:27.546Z,90
2018-03-31T08:53:08.801Z,90
2018-03-31T08:53:56.681Z,90
2018-03-31T08:54:43.204Z,85
2018-03-31T08:55:26.524Z,85
2018-03-31T08:56:06.920Z,90
2018-03-31T08:56:47.361Z,85
2018-03-31T08:57:28.305Z,85
2018-03-31T08:58:09.641Z,85
2018-03-31T08:58:49.496Z,85
2018-03-31T08:59:30.258Z,85
2018-03-31T09:00:10.705Z,85
2018-03-31T09:00:51.145Z,85
2018-03-31T09:01:31.580Z,85
2018-03-31T09:02:11.909Z,85
2018-03-31T09:02:52.380Z,85
2018-03-31T09:03:32.829Z,75
2018-03-31T09:04:13.254Z,80
2018-03-31T09:04:53.717Z,85
2018-03-31T09:05:36.589Z,85
2018-03-31T09:08:04.759Z,85
2018-03-31T09:08:54.937Z,85
2018-03-31T09:11:34.519Z,90
2018-03-31T09:15:47.131Z,85
2018-03-31T09:16:46.523Z,85
2018-03-31T09:20:59.578Z,80
2018-03-31T09:23:25.244Z,80
2018-03-31T09:24:16.900Z,80
2018-03-31T09:25:04.380Z,75
2018-03-31T09:25:43.866Z,80
2018-03-31T09:26:26.764Z,80
2018-03-31T09:27:09.604Z,80
2018-03-31T09:39:31.072Z,70
2018-03-31T09:40:11.425Z,75
2018-03-31T09:40:51.819Z,75
2018-03-31T09:41:32.210Z,75
2018-03-31T09:42:12.638Z,75
2018-03-31T09:42:53.035Z,75
2018-03-31T09:43:33.462Z,75
2018-03-31T09:44:28.395Z,75
2018-03-31T09:45:08.803Z,75
2018-03-31T09:45:49.186Z,75
2018-03-31T09:46:29.592Z,75
2018-03-31T09:47:10.000Z,75
2018-03-31T09:47:50.393Z,75
2018-03-31T09:48:30.827Z,75
2018-03-31T09:49:11.235Z,75
2018-03-31T09:49:51.598Z,75
2018-03-31T09:50:31.976Z,75
2018-03-31T09:51:12.407Z,75
2018-03-31T09:51:52.830Z,75
2018-03-31T09:52:33.210Z,75
2018-03-31T09:53:13.606Z,75
2018-03-31T09:53:54.123Z,75
2018-03-31T09:54:34.641Z,75
2018-03-31T09:55:15.034Z,75
2018-03-31T09:55:55.452Z,75
2018-03-31T09:56:35.865Z,75
2018-03-31T09:57:16.329Z,75
2018-03-31T09:57:56.817Z,75
2018-03-31T09:58:38.178Z,75
2018-03-31T09:59:17.767Z,75
2018-03-31T09:59:58.487Z,75
2018-03-31T10:00:38.966Z,70
2018-03-31T10:01:19.333Z,70
2018-03-31T10:01:59.825Z,75
2018-03-31T10:02:40.313Z,75
2018-03-31T10:03:20.726Z,75
2018-03-31T10:04:01.210Z,75
2018-03-31T10:04:41.599Z,75
2018-03-31T10:05:22.004Z,70
2018-03-31T10:06:02.470Z,70
2018-03-31T10:46:21.387Z,70
2018-03-31T10:47:05.822Z,70
2018-03-31T10:47:45.284Z,70
2018-03-31T10:48:26.955Z,70
2018-03-31T10:49:07.385Z,70
2018-03-31T10:49:47.649Z,70
2018-03-31T10:50:28.232Z,65
2018-03-31T10:51:09.761Z,65
2018-03-31T10:51:53.025Z,65
2018-03-31T10:52:34.192Z,65
2018-03-31T10:53:14.531Z,65
2018-03-31T10:53:55.320Z,70
2018-03-31T10:54:36.769Z,70
2018-03-31T10:55:17.230Z,70
2018-03-31T10:55:57.999Z,70
2018-03-31T10:56:38.438Z,70
2018-03-31T10:57:18.892Z,70
2018-03-31T10:57:59.401Z,70
2018-03-31T10:58:40.602Z,70
2018-03-31T10:59:21.049Z,70
2018-03-31T11:00:02.250Z,70
2018-03-31T11:00:42.596Z,70
2018-03-31T11:01:23.058Z,70
2018-03-31T11:02:04.398Z,75
2018-03-31T11:02:44.916Z,75
2018-03-31T11:03:25.336Z,75
2018-03-31T11:04:05.774Z,75
2018-03-31T11:04:46.174Z,70
2018-03-31T11:05:26.591Z,70
2018-03-31T11:06:07.054Z,70
2018-03-31T11:06:47.520Z,70
2018-03-31T11:07:27.892Z,70
2018-03-31T11:08:09.021Z,70
2018-03-31T11:08:49.627Z,70
2018-03-31T11:09:29.810Z,70
2018-03-31T11:10:10.459Z,70
2018-03-31T11:10:51.241Z,70
2018-03-31T11:11:31.523Z,70
2018-03-31T11:12:12.133Z,70
2018-03-31T11:12:52.690Z,70
2018-03-31T11:13:33.349Z,70
2018-03-31T11:14:14.907Z,70
2018-03-31T11:14:56.472Z,70
2018-03-31T11:15:37.403Z,70
2018-03-31T11:16:17.683Z,70
2018-03-31T11:17:01.188Z,85
2018-03-31T11:17:43.044Z,100
2018-03-31T11:18:23.469Z,100
2018-03-31T11:20:56.010Z,65
2018-03-31T11:21:35.634Z,65
2018-03-31T11:22:16.553Z,65
2018-03-31T11:22:57.133Z,65
2018-03-31T11:23:37.369Z,65
2018-03-31T11:24:17.808Z,65
2018-03-31T11:24:59.396Z,65
2018-03-31T11:25:39.570Z,80
2018-03-31T11:26:21.832Z,85
2018-03-31T11:27:01.067Z,65
2018-03-31T11:27:41.499Z,75
2018-03-31T11:28:21.897Z,80
2018-03-31T11:29:02.297Z,90
2018-03-31T11:29:42.692Z,90
2018-03-31T11:30:23.647Z,90
2018-03-31T11:31:03.795Z,90
2018-03-31T11:31:44.202Z,90
2018-03-31T11:32:24.636Z,90
2018-03-31T11:33:05.071Z,85
2018-03-31T11:33:45.525Z,90
2018-03-31T11:34:25.936Z,85
2018-03-31T11:35:06.370Z,85
2018-03-31T11:35:46.855Z,85
2018-03-31T11:36:27.185Z,85
2018-03-31T11:37:07.567Z,85
2018-03-31T11:40:41.010Z,75
2018-03-31T11:41:23.162Z,70
2018-03-31T11:42:04.665Z,65
2018-03-31T11:42:49.312Z,65
2018-03-31T11:43:35.247Z,60
2018-03-31T11:44:21.804Z,60
2018-03-31T11:45:04.941Z,55
2018-03-31T11:45:45.302Z,55
2018-03-31T11:46:25.843Z,55
2018-03-31T11:47:06.557Z,55
2018-03-31T11:47:46.949Z,55
2018-03-31T11:48:27.578Z,55
2018-03-31T11:49:07.961Z,55
2018-03-31T11:51:28.300Z,55
2018-03-31T11:52:12.310Z,55
2018-03-31T11:55:03.242Z,60
2018-03-31T11:55:49.358Z,60
2018-03-31T11:56:35.150Z,60
2018-03-31T11:57:16.218Z,55
2018-03-31T11:57:55.836Z,55
2018-03-31T11:58:36.397Z,55
2018-03-31T11:59:16.685Z,55
2018-03-31T11:59:57.492Z,55
2018-03-31T12:00:37.904Z,55
2018-03-31T12:01:18.321Z,55
2018-03-31T12:01:59.226Z,55
2018-03-31T12:02:41.305Z,55
2018-03-31T12:03:21.456Z,55
2018-03-31T12:04:01.847Z,55
2018-03-31T12:04:42.746Z,55
2018-03-31T12:05:23.167Z,55
2018-03-31T12:06:04.511Z,55
2018-03-31T12:06:44.367Z,55
2018-03-31T12:07:24.776Z,55
2018-03-31T12:08:05.667Z,55
2018-03-31T12:08:46.071Z,55
2018-03-31T12:09:28.015Z,65
2018-03-31T12:10:08.447Z,80
2018-03-31T12:10:48.919Z,80
2018-03-31T12:11:29.331Z,85
2018-03-31T12:12:09.780Z,85
2018-03-31T12:12:50.246Z,85
2018-03-31T12:13:30.652Z,85
2018-03-31T12:14:11.127Z,70
2018-03-31T12:26:30.753Z,70
2018-03-31T12:27:10.376Z,70
2018-03-31T12:27:50.652Z,70
2018-03-31T12:28:31.136Z,70
2018-03-31T12:29:11.644Z,70
2018-03-31T12:29:52.785Z,70
2018-03-31T12:30:33.243Z,70
2018-03-31T12:31:13.964Z,70
2018-03-31T12:31:54.697Z,70
2018-03-31T12:32:35.211Z,70
2018-03-31T12:33:15.637Z,45
2018-03-31T12:33:55.997Z,40
2018-03-31T12:34:37.184Z,45
2018-03-31T12:35:17.612Z,45
2018-03-31T12:35:58.799Z,50
2018-03-31T12:36:39.359Z,45
2018-03-31T12:37:19.604Z,50
2018-03-31T12:38:00.047Z,60
2018-03-31T12:38:40.496Z,65
2018-03-31T12:39:20.827Z,50
2018-03-31T12:40:01.294Z,45
2018-03-31T12:40:42.289Z,50
2018-03-31T12:41:23.614Z,40
2018-03-31T12:42:04.679Z,40
2018-03-31T12:42:45.155Z,40
2018-03-31T12:43:26.184Z,40
2018-03-31T12:44:06.604Z,40
2018-03-31T12:44:47.121Z,40
2018-03-31T12:45:27.473Z,40